38NC weather

Public forecast

Using degrees Fahrenheit for public forecast. Weather courtesy of forecast.io.

Closest aviation weather report (METAR) to Annie Penn Hospital Heliport

Closest report is Rockingham County NC Shiloh Airport, 10.2 nm (18.9 km) WNW. Retrieved 2020/08/13 13:15 UTC (27 seconds ago):

KSIF 131315Z AUTO 03003KT 5SM BR OVC006 23/22 A3007 RMK AO2 T02320224

Closest aviation forecast (TAF) to Annie Penn Hospital Heliport

Closest forecast is Piedmont Triad International Airport, 20.2 nm (37.4 km) SW. Retrieved 2020/08/13 12:34 UTC (41 minutes ago):

TAF KGSO 131132Z 1312/1412 05004KT 5SM BR BKN004 TEMPO 1312/1314 6SM BR SCT004 BKN090 FM131400 05004KT P6SM FEW015 SCT035 BKN250 FM131800 08004KT P6SM VCSH BKN040 BKN110 TEMPO 1400/1404 3SM -TSRA BKN020 BKN040CB OVC100 FM141000 VRB02KT 3SM BR BKN003